Reklama

Seznam meteostanic a jejich METAR

Vyhledat místa podle abecedy:
A B C D E F G H I J K L M N O P Q R S T U V W X Y Z

Filtrovat:

ID stanice:
a/nebo
Název místa (fulltext):
 
Místo (ID)Naposledy načteno 
Brno - Tuřany (Brno/Tu) 10.12.2018 21:00 UTC Zobrazit data
Místo: Brno - Tuřany
Teplota: 0 °C (pocitová: -9.2 °C)
Vítr: 5 m/s z(e) 260°
Počasí: skorojasno
Dohlednost: 50 km
Zákl. oblačnosti: 1/8 2100 m
Vlhkost: 87%
Červená - Opava (Cervena/uL) 10.12.2018 21:00 UTC Zobrazit data
Místo: Červená - Opava
Teplota: -1 °C (pocitová: -11.2 °C)
Vítr: 6 m/s z(e) 270°
Počasí: sněží
Dohlednost: 8 km
Zákl. oblačnosti: 7/8 60 m
Vlhkost: 86%
České Budějovice (C.Budej/po) 10.12.2018 21:00 UTC Zobrazit data
Místo: České Budějovice
Teplota: 3 °C (pocitová: -4.3 °C)
Vítr: 4 m/s z(e) 300°
Počasí: oblačno
Dohlednost: 35 km
Zákl. oblačnosti: 3/8 1050 m
Vlhkost: 65%
Cheb (Cheb) 10.12.2018 21:00 UTC Zobrazit data
Místo: Cheb
Teplota: 1 °C (pocitová: -6 °C)
Vítr: 3 m/s z(e) 270°
Počasí: skoro zataženo
Dohlednost: 35 km
Zákl. oblačnosti: 7/8 690 m
Vlhkost: 87%
Chotusice - Čáslav (Caslav) 10.12.2018 21:00 UTC Zobrazit data
Místo: Chotusice - Čáslav
Teplota: 2 °C (pocitová: -5.6 °C)
Vítr: 4 m/s z(e) 250°
Počasí: skorojasno
Dohlednost: 20 km
Zákl. oblačnosti: 2/8 1290 m
Vlhkost: 81%
Churáňov (Churanov) 10.12.2018 21:00 UTC Zobrazit data
Místo: Churáňov
Teplota: -3 °C (pocitová: -13.4 °C)
Vítr: 5 m/s z(e) 270°
Počasí: sněží
Dohlednost: 23 km
Zákl. oblačnosti: 7/8 300 m
Vlhkost: 93%
Doksany - Litoměřice (Doksany) 10.12.2018 21:00 UTC Zobrazit data
Místo: Doksany - Litoměřice
Teplota: 3 °C (pocitová: -5 °C)
Vítr: 5 m/s z(e) 240°
Počasí: zataženo
Dohlednost: 35 km
Zákl. oblačnosti: 8/8 780 m
Vlhkost: 81%
Dukovany (Dukovany) 10.12.2018 21:00 UTC Zobrazit data
Místo: Dukovany
Teplota: 0 °C (pocitová: -9.2 °C)
Vítr: 5 m/s z(e) 280°
Počasí: oblačno
Dohlednost: 27 km
Zákl. oblačnosti: 1/8 300 m;3/8 1230 m
Vlhkost: 93%
Holešov (Holesov) 10.12.2018 21:00 UTC Zobrazit data
Místo: Holešov
Teplota: 1 °C (pocitová: -4.6 °C)
Vítr: 2 m/s z(e) 120°
Počasí: zataženo
Dohlednost: 30 km
Zákl. oblačnosti: 8/8 840 m
Vlhkost: 93%
Kadaň - Tušimice (Tusimice) 10.12.2018 21:00 UTC Zobrazit data
Místo: Kadaň - Tušimice
Teplota: 3 °C (pocitová: -7.1 °C)
Vítr: 10 m/s z(e) 290°
Počasí: zataženo
Dohlednost: 35 km
Zákl. oblačnosti: 4/8 930 m;5/8 3300 m
Vlhkost: 81%
Karlovy Vary (K.Vary) 10.12.2018 21:00 UTC Zobrazit data
Místo: Karlovy Vary
Teplota: 0 °C (pocitová: -9.2 °C)
Vítr: 5 m/s z(e) 270°
Počasí: skoro zataženo
Dohlednost: 15 km
Zákl. oblačnosti: 7/8 600 m
Vlhkost: 93%
Kocelovice (Kocelovice) 10.12.2018 21:00 UTC Zobrazit data
Místo: Kocelovice
Teplota: 0 °C (pocitová: -10.9 °C)
Vítr: 8 m/s z(e) 270°
Počasí: skoro zataženo
Dohlednost: 35 km
Zákl. oblačnosti: 7/8 5100 m
Vlhkost: 93%
Kopisty (Kopisty) 10.12.2018 21:00 UTC Zobrazit data
Místo: Kopisty
Teplota: 3 °C (pocitová: -5.5 °C)
Vítr: 6 m/s z(e) 290°
Počasí: zataženo
Dohlednost: 15 km
Zákl. oblačnosti: 8/8 510 m
Vlhkost: 81%
Kostelní Myslová (K.Myslova) 10.12.2018 21:00 UTC Zobrazit data
Místo: Kostelní Myslová
Teplota: 0 °C (pocitová: -8.4 °C)
Vítr: 4 m/s z(e) 290°
Počasí: oblačno
Dohlednost: 35 km
Zákl. oblačnosti: 3/8 420 m
Vlhkost: 93%
Křešín - Kramolín (Kramolin) 10.12.2018 21:00 UTC Zobrazit data
Místo: Křešín - Kramolín
Teplota: 0 °C (pocitová: -9.7 °C)
Vítr: 6 m/s z(e) 270°
Počasí: zataženo
Dohlednost: 35 km
Zákl. oblačnosti: 8/8 5100 m
Vlhkost: 87%
Kuchařovice - Znojmo (Kucharovic) 10.12.2018 21:00 UTC Zobrazit data
Místo: Kuchařovice - Znojmo
Teplota: 1 °C (pocitová: -7.8 °C)
Vítr: 5 m/s z(e) 290°
Počasí: zataženo
Dohlednost: 35 km
Zákl. oblačnosti: 2/8 930 m;7/8 1200 m
Vlhkost: 81%
Liberec (Liberec) 10.12.2018 21:00 UTC Zobrazit data
Místo: Liberec
Teplota: 1 °C (pocitová: -7.8 °C)
Vítr: 5 m/s z(e) 290°
Počasí: zataženo
Dohlednost: 35 km
Zákl. oblačnosti: 8/8 450 m
Vlhkost: 93%
Luká (Luka) 10.12.2018 21:00 UTC Zobrazit data
Místo: Luká
Teplota: 0 °C (pocitová: -10.4 °C)
Vítr: 7 m/s z(e) 290°
Počasí: sněží
Dohlednost: 30 km
Zákl. oblačnosti: 2/8 390 m;7/8 1410 m
Vlhkost: 93%
Lysá Hora (Lysa Hora) 08.12.2018 19:00 UTC Zobrazit data
Místo: Lysá Hora
Teplota: -1 °C (pocitová: -9.8 °C)
Vítr: 4 m/s z(e) 270°
Počasí: sněží
Dohlednost: 11 km
Zákl. oblačnosti: 7/8 30 m
Vlhkost: 100%
Milešovka (Milesovka) 10.12.2018 21:00 UTC Zobrazit data
Místo: Milešovka
Teplota: -1 °C (pocitová: -13.8 °C)
Vítr: 12 m/s z(e) 290°
Počasí: zataženo
Dohlednost: 40 km
Zákl. oblačnosti: 7/8 180 m
Vlhkost: 93%
Mošnov (Ostrava/Mo) 10.12.2018 21:00 UTC Zobrazit data
Místo: Mošnov
Teplota: 1 °C (pocitová: -8.3 °C)
Vítr: 6 m/s z(e) 230°
Počasí: skoro zataženo
Dohlednost: 20 km
Zákl. oblačnosti: 6/8 2100 m
Vlhkost: 93%
Náměšť nad Oslavou (Namest n/O) 10.12.2018 21:00 UTC Zobrazit data
Místo: Náměšť nad Oslavou
Teplota: -1 °C (pocitová: -10.6 °C)
Vítr: 5 m/s z(e) 290°
Počasí: skoro zataženo
Dohlednost: 50 km
Zákl. oblačnosti: 5/8 1800 m
Vlhkost: 93%
Pardubice (Pardubice) 10.12.2018 21:00 UTC Zobrazit data
Místo: Pardubice
Teplota: 2 °C (pocitová: -6.4 °C)
Vítr: 5 m/s z(e) 250°
Počasí: skoro zataženo
Dohlednost: 20 km
Zákl. oblačnosti: 3/8 1290 m;7/8 1500 m
Vlhkost: 87%
Pec pod Sněžkou (Pec p.Snez) 10.12.2018 21:00 UTC Zobrazit data
Místo: Pec pod Sněžkou
Teplota: -1 °C (pocitová: -7.2 °C)
Vítr: 2 m/s z(e) 0°
Počasí: sněží
Dohlednost: 1100 m
Zákl. oblačnosti: 2/8 60 m;8/8 390 m
Vlhkost: 93%
Plzeň město - Mikulka (Plzen/Miku) 10.12.2018 21:00 UTC Zobrazit data
Místo: Plzeň město - Mikulka
Teplota: 1 °C (pocitová: -7 °C)
Vítr: 4 m/s z(e) 230°
Počasí: skoro zataženo
Dohlednost: 35 km
Zákl. oblačnosti: 7/8 900 m
Vlhkost: 93%
Polom (Polom) 10.12.2018 17:00 UTC Zobrazit data
Místo: Polom
Teplota: -1 °C (pocitová: -7.2 °C)
Vítr: 2 m/s z(e) 240°
Počasí: sněží
Dohlednost: 1500 m
Zákl. oblačnosti: 8/8 60 m
Vlhkost: 100%
Praha - Karlov (Praha/Kar) 10.12.2018 21:00 UTC Zobrazit data
Místo: Praha - Karlov
Teplota: 2 °C (pocitová: -4.7 °C)
Vítr: 3 m/s z(e) 230°
Počasí: zataženo
Dohlednost: 35 km
Zákl. oblačnosti: 8/8 1080 m
Vlhkost: 81%
Praha - Kbely (Praha/Kbe) 10.12.2018 21:00 UTC Zobrazit data
Místo: Praha - Kbely
Teplota: 3 °C (pocitová: -5.5 °C)
Vítr: 6 m/s z(e) 240°
Počasí: skoro zataženo
Dohlednost: 20 km
Zákl. oblačnosti: 5/8 1020 m;7/8 1170 m
Vlhkost: 75%
Praha - Libuš (Praha/Lib) 10.12.2018 21:00 UTC Zobrazit data
Místo: Praha - Libuš
Teplota: 2 °C (pocitová: -4.7 °C)
Vítr: 3 m/s z(e) 250°
Počasí: skoro zataženo
Dohlednost: 35 km
Zákl. oblačnosti: 7/8 1050 m
Vlhkost: 81%
Praha - Ruzyně (Praha/Ru) 10.12.2018 21:00 UTC Zobrazit data
Místo: Praha - Ruzyně
Teplota: 1 °C (pocitová: -7.8 °C)
Vítr: 5 m/s z(e) 250°
Počasí: skoro zataženo
Dohlednost: 35 km
Zákl. oblačnosti: 5/8 990 m
Vlhkost: 87%
Přibyslav (Pribyslav) 10.12.2018 21:00 UTC Zobrazit data
Místo: Přibyslav
Teplota: 0 °C (pocitová: -8.4 °C)
Vítr: 4 m/s z(e) 290°
Počasí: zataženo
Dohlednost: 35 km
Zákl. oblačnosti: 8/8 1080 m
Vlhkost: 93%
Přimda (Primda) 10.12.2018 21:00 UTC Zobrazit data
Místo: Přimda
Teplota: -1 °C (pocitová: -11.2 °C)
Vítr: 6 m/s z(e) 280°
Počasí: skoro zataženo
Dohlednost: 27 km
Zákl. oblačnosti: 7/8 270 m
Vlhkost: 93%
Šerák (Serak) 10.12.2018 21:00 UTC Zobrazit data
Místo: Šerák
Teplota: -5 °C (pocitová: -16.2 °C)
Vítr: 5 m/s z(e) 290°
Počasí: sněží
Dohlednost: 800 m
Zákl. oblačnosti: 8/8 30 m
Vlhkost: 100%
Svratouch (Svratouch) 10.12.2018 21:00 UTC Zobrazit data
Místo: Svratouch
Teplota: -1 °C (pocitová: -11.2 °C)
Vítr: 6 m/s z(e) 290°
Počasí: zataženo
Dohlednost: 35 km
Zákl. oblačnosti: 8/8 870 m
Vlhkost: 86%
Temelín (Temelin) 10.12.2018 21:00 UTC Zobrazit data
Místo: Temelín
Teplota: 0 °C (pocitová: -9.7 °C)
Vítr: 6 m/s z(e) 280°
Počasí: skoro zataženo
Dohlednost: 35 km
Zákl. oblačnosti: 2/8 660 m;3/8 5100 m
Vlhkost: 93%
Ústí nad Labem - Kočkov (Usti n/L) 10.12.2018 21:00 UTC Zobrazit data
Místo: Ústí nad Labem - Kočkov
Teplota: 2 °C (pocitová: -6.9 °C)
Vítr: 6 m/s z(e) 280°
Počasí: déšť
Dohlednost: 29 km
Zákl. oblačnosti: 7/8 630 m
Vlhkost: 87%
Ústí nad Orlicí (Usti n/O) 10.12.2018 21:00 UTC Zobrazit data
Místo: Ústí nad Orlicí
Teplota: 0 °C (pocitová: -10.4 °C)
Vítr: 7 m/s z(e) 260°
Počasí: zataženo
Dohlednost: 28 km
Zákl. oblačnosti: 1/8 270 m;8/8 1290 m
Vlhkost: 100%
Aalborg (EKYT) 10.12.2018 21:50 UTC Zobrazit METAR
EKYT 102150Z AUTO 35010KT 310V030 9999 BKN045/// 06/M02 Q1010
Aarhus (EKAH) 17.11.2018 09:50 UTC Zobrazit METAR
EKAH 170950Z 15006KT 110V210 9999 SCT014 06/04 Q1041
Abu Dhabi (OMAA) 10.12.2018 22:00 UTC Zobrazit METAR
OMAA 102200Z 28004KT CAVOK 23/18 Q1015 NOSIG
Abuja (DNAA) 10.12.2018 20:00 UTC Zobrazit METAR
DNAA 102000Z 31003KT CAVOK 23/11 Q1016 NOSIG
Accra (DGAA) 10.12.2018 22:00 UTC Zobrazit METAR
DGAA 102200Z 21007KT CAVOK 29/24 Q1015 NOSIG
Addis Abeba (HAAB) 10.12.2018 22:00 UTC Zobrazit METAR
HAAB 102200Z 08006KT 9999 FEW025 14/08 Q1028
Agana (PGUM) 10.12.2018 21:54 UTC Zobrazit METAR
PGUM 102154Z 08010KT 10SM SCT019 SCT032 29/27 A2991 RMK AO2 SLP119 T02890267
Ahe Island (NTHE) Zatím nenačteno  
Akureyri (BIAR) 10.12.2018 22:00 UTC Zobrazit METAR
BIAR 102200Z VRB06G17KT 9999 -RA OVC052 05/00 Q1003
Almaty (UAAA) Zatím nenačteno  
Amman (OJAM) 10.12.2018 22:00 UTC Zobrazit METAR
OJAM 102200Z 24005KT 5000 HZ NSC 10/06 Q1020 NOSIG
Amsterdam (EHAM) 09.12.2018 00:55 UTC Zobrazit METAR
EHAM 090055Z 27024G35KT 9999 -SHRA FEW030 BKN048 10/06 Q0992 TEMPO 27030G42KT 6000 SHRA
Antananarivo (FMMI) 10.12.2018 22:00 UTC Zobrazit METAR
FMMI 102200Z 09005KT 9999 FEW017 BKN020 20/17 Q1020 NOSIG
1 2 3 ... 9 Další
Reklama

Počasí na Váš email

Emaily jsou bez reklamy a bez spamu



Odhlásit newsletter

Reklama


Lunární kalendář

  • 15.12.
  • 22.12.
  • 29.12.
  • 06.01.



Reklama


Reklama
Povinné ručení
Reklama



Reklama